createdAt,value
2022-10-17T00:01:56.109Z,101554.75
2022-10-17T00:04:22.724Z,101549.75
2022-10-17T00:06:49.236Z,101554.75
2022-10-17T00:09:15.896Z,101547.78
2022-10-17T00:11:42.456Z,101545.72
2022-10-17T00:14:08.957Z,101550.78
2022-10-17T00:16:39.521Z,101542.97
2022-10-17T00:19:07.208Z,101537.78
2022-10-17T00:21:35.023Z,101536.94
2022-10-17T00:24:01.632Z,101537.41
2022-10-17T00:26:31.143Z,101535.34
2022-10-17T00:28:57.680Z,101535.16
2022-10-17T00:31:24.897Z,101527.31
2022-10-17T00:33:51.962Z,101531.94
2022-10-17T00:36:26.426Z,101531.75
2022-10-17T00:38:55.685Z,101530.56
2022-10-17T00:41:25.030Z,101533.28
2022-10-17T00:43:53.187Z,101533.78
2022-10-17T00:46:20.649Z,101544.72
2022-10-17T00:48:49.085Z,101545.88
2022-10-17T00:51:15.992Z,101535.28
2022-10-17T00:53:42.559Z,101537.00
2022-10-17T00:56:09.141Z,101534.25
2022-10-17T00:58:35.786Z,101534.44
2022-10-17T01:01:03.054Z,101536.31
2022-10-17T01:03:29.632Z,101530.00
2022-10-17T01:05:56.878Z,101525.91
2022-10-17T01:08:23.599Z,101522.84
2022-10-17T01:11:14.514Z,101514.81
2022-10-17T01:13:54.313Z,101522.22
2022-10-17T01:16:40.774Z,101501.50
2022-10-17T01:19:40.896Z,101496.41
2022-10-17T01:22:22.907Z,101502.91
2022-10-17T01:25:13.718Z,101494.50
2022-10-17T01:27:52.135Z,101508.88
2022-10-17T01:30:43.141Z,101518.03
2022-10-17T01:33:15.699Z,101504.66
2022-10-17T01:35:50.363Z,101502.59
2022-10-17T01:38:16.763Z,101514.88
2022-10-17T01:40:49.022Z,101507.53
2022-10-17T01:43:24.322Z,101504.09
2022-10-17T01:45:58.903Z,101497.41
2022-10-17T01:48:30.127Z,101487.88
2022-10-17T01:51:17.157Z,101479.13
2022-10-17T01:53:50.178Z,101493.16
2022-10-17T01:56:17.886Z,101481.16
2022-10-17T01:58:49.315Z,101479.81
2022-10-17T02:01:16.733Z,101477.06
2022-10-17T02:03:43.934Z,101478.09
2022-10-17T02:06:10.671Z,101472.94
2022-10-17T02:08:48.775Z,101466.97
2022-10-17T02:11:18.813Z,101465.56
2022-10-17T02:14:06.654Z,101465.38
2022-10-17T02:16:42.243Z,101469.31
2022-10-17T02:19:18.391Z,101472.47
2022-10-17T02:22:01.659Z,101462.34
2022-10-17T02:24:46.740Z,101456.03
2022-10-17T02:27:37.979Z,101462.81
2022-10-17T02:30:23.052Z,101453.19
2022-10-17T02:32:56.886Z,101469.75
2022-10-17T02:35:25.970Z,101470.75
2022-10-17T02:37:53.399Z,101479.81
2022-10-17T02:40:22.010Z,101469.13
2022-10-17T02:42:49.235Z,101475.94
2022-10-17T02:45:15.933Z,101481.81
2022-10-17T02:47:54.410Z,101480.94
2022-10-17T02:50:24.608Z,101488.13
2022-10-17T02:53:09.308Z,101489.28
2022-10-17T02:55:43.772Z,101491.84
2022-10-17T02:58:23.625Z,101480.78
2022-10-17T03:00:50.955Z,101489.72
2022-10-17T03:03:26.173Z,101485.41
2022-10-17T03:05:52.830Z,101481.06
2022-10-17T03:08:20.147Z,101487.53
2022-10-17T03:10:46.929Z,101495.38
2022-10-17T03:13:14.446Z,101489.50
2022-10-17T03:15:41.363Z,101491.66
2022-10-17T03:18:08.194Z,101493.66
2022-10-17T03:20:34.739Z,101491.84
2022-10-17T03:23:01.311Z,101498.69
2022-10-17T03:25:28.055Z,101490.72
2022-10-17T03:27:54.880Z,101487.31
2022-10-17T03:30:21.380Z,101495.09
2022-10-17T03:32:48.048Z,101483.91
2022-10-17T03:35:14.952Z,101497.25
2022-10-17T03:37:41.876Z,101497.06
2022-10-17T03:40:08.792Z,101500.94
2022-10-17T03:42:35.499Z,101497.03
2022-10-17T03:45:01.988Z,101491.94
2022-10-17T03:47:29.312Z,101496.72
2022-10-17T03:49:56.023Z,101506.75
2022-10-17T03:52:22.591Z,101511.94
2022-10-17T03:54:50.799Z,101501.03
2022-10-17T03:57:18.330Z,101499.78
2022-10-17T03:59:44.888Z,101504.69
2022-10-17T04:02:11.454Z,101503.28
2022-10-17T04:04:38.008Z,101499.13
2022-10-17T04:07:04.750Z,101497.94
2022-10-17T04:09:31.294Z,101489.81
2022-10-17T04:11:57.754Z,101493.69
2022-10-17T04:14:24.238Z,101498.97
2022-10-17T04:16:50.759Z,101495.84
2022-10-17T04:19:17.284Z,101492.88
2022-10-17T04:21:43.993Z,101487.84
2022-10-17T04:24:11.714Z,101519.34
2022-10-17T04:26:38.236Z,101500.69
2022-10-17T04:29:04.764Z,101503.16
2022-10-17T04:31:31.568Z,101511.34
2022-10-17T04:33:58.046Z,101507.47
2022-10-17T04:36:24.881Z,101509.41
2022-10-17T04:38:51.355Z,101507.94
2022-10-17T04:41:18.936Z,101522.03
2022-10-17T04:43:48.618Z,101518.97
2022-10-17T04:46:17.867Z,101518.88
2022-10-17T04:48:44.383Z,101514.28
2022-10-17T04:51:13.132Z,101520.63
2022-10-17T04:53:40.354Z,101514.09
2022-10-17T04:56:15.492Z,101510.50
2022-10-17T04:58:42.292Z,101502.38
2022-10-17T05:01:14.078Z,101518.06
2022-10-17T05:03:40.637Z,101523.63
2022-10-17T05:06:12.450Z,101542.44
2022-10-17T05:08:39.502Z,101539.28
2022-10-17T05:11:16.181Z,101537.78
2022-10-17T05:13:42.943Z,101521.53
2022-10-17T05:16:09.770Z,101527.25
2022-10-17T05:18:36.334Z,101530.63
2022-10-17T05:21:05.767Z,101524.28
2022-10-17T05:23:32.804Z,101532.94
2022-10-17T05:25:59.402Z,101530.50
2022-10-17T05:28:25.913Z,101523.31
2022-10-17T05:30:52.412Z,101537.66
2022-10-17T05:33:19.060Z,101528.97
2022-10-17T05:35:45.620Z,101535.94
2022-10-17T05:38:12.116Z,101528.53
2022-10-17T05:40:39.445Z,101523.97
2022-10-17T05:43:06.311Z,101529.66
2022-10-17T05:45:33.064Z,101536.00
2022-10-17T05:47:59.537Z,101523.75
2022-10-17T05:50:26.099Z,101530.13
2022-10-17T05:52:55.819Z,101532.88
2022-10-17T05:55:22.850Z,101526.91
2022-10-17T05:57:50.526Z,101535.56
2022-10-17T06:00:17.285Z,101552.91
2022-10-17T06:02:46.036Z,101573.13
2022-10-17T06:05:13.272Z,101559.19
2022-10-17T06:07:40.018Z,101554.47
2022-10-17T06:10:06.985Z,101566.06
2022-10-17T06:12:33.508Z,101570.91
2022-10-17T06:15:00.138Z,101572.00
2022-10-17T06:17:26.715Z,101567.31
2022-10-17T06:19:53.419Z,101589.47
2022-10-17T06:22:19.877Z,101572.16
2022-10-17T06:24:46.388Z,101574.91
2022-10-17T06:27:13.380Z,101588.97
2022-10-17T06:29:40.096Z,101590.81
2022-10-17T06:32:09.822Z,101581.50
2022-10-17T06:34:39.119Z,101583.16
2022-10-17T06:37:05.611Z,101589.38
2022-10-17T06:39:34.054Z,101594.22
2022-10-17T06:42:01.346Z,101583.41
2022-10-17T06:44:31.619Z,101587.97
2022-10-17T06:46:59.254Z,101582.94
2022-10-17T06:49:26.062Z,101587.00
2022-10-17T06:51:52.737Z,101600.22
2022-10-17T06:54:19.284Z,101627.56
2022-10-17T06:56:45.748Z,101636.84
2022-10-17T06:59:12.378Z,101657.81
2022-10-17T07:01:40.690Z,101663.09
2022-10-17T07:04:09.650Z,101664.16
2022-10-17T07:06:36.250Z,101676.84
2022-10-17T07:09:03.319Z,101680.00
2022-10-17T07:11:30.024Z,101705.91
2022-10-17T07:13:56.525Z,101710.56
2022-10-17T07:16:23.287Z,101735.72
2022-10-17T07:18:51.249Z,101739.88
2022-10-17T07:21:17.787Z,101736.84
2022-10-17T07:23:44.311Z,101757.16
2022-10-17T07:26:13.175Z,101784.66
2022-10-17T07:28:41.675Z,101762.00
2022-10-17T07:31:11.550Z,101790.25
2022-10-17T07:33:38.310Z,101781.72
2022-10-17T07:36:05.739Z,101784.84
2022-10-17T07:38:32.769Z,101796.91
2022-10-17T07:41:00.941Z,101814.63
2022-10-17T07:43:28.248Z,101810.34
2022-10-17T07:45:55.460Z,101824.66
2022-10-17T07:48:23.501Z,101816.59
2022-10-17T07:50:50.590Z,101827.41
2022-10-17T07:53:17.255Z,101835.06
2022-10-17T07:55:44.949Z,101824.28
2022-10-17T07:58:11.487Z,101827.22
2022-10-17T08:00:38.566Z,101832.44
2022-10-17T08:03:05.932Z,101841.03
2022-10-17T08:05:33.379Z,101837.31
2022-10-17T08:07:59.993Z,101824.16
2022-10-17T08:10:27.774Z,101820.53
2022-10-17T08:12:55.353Z,101800.00
2022-10-17T08:15:22.422Z,101784.72
2022-10-17T08:17:48.911Z,101806.69
2022-10-17T08:20:15.865Z,101831.41
2022-10-17T08:22:42.401Z,101835.03
2022-10-17T08:25:09.645Z,101836.44
2022-10-17T08:27:36.137Z,101804.91
2022-10-17T08:30:02.719Z,101789.47
2022-10-17T08:32:29.773Z,101798.34
2022-10-17T08:34:56.536Z,101785.00
2022-10-17T08:37:23.670Z,101771.75
2022-10-17T08:39:50.178Z,101787.75
2022-10-17T08:42:38.136Z,101801.47
2022-10-17T08:45:07.545Z,101805.94
2022-10-17T08:47:36.374Z,101811.72
2022-10-17T08:50:05.967Z,101813.78
2022-10-17T08:52:38.738Z,101831.13
2022-10-17T08:55:14.580Z,101834.06
2022-10-17T08:57:41.235Z,101841.44
2022-10-17T09:00:15.839Z,101847.16
2022-10-17T09:03:02.229Z,101837.88
2022-10-17T09:05:47.563Z,101839.75
2022-10-17T09:08:40.326Z,101825.66
2022-10-17T09:11:18.863Z,101832.44
2022-10-17T09:14:04.917Z,101828.66
2022-10-17T09:16:41.430Z,101834.78
2022-10-17T09:19:25.046Z,101829.63
2022-10-17T09:22:17.603Z,101844.78
2022-10-17T09:24:58.207Z,101860.22
2022-10-17T09:27:28.557Z,101856.25
2022-10-17T09:30:40.091Z,101868.28
2022-10-17T09:33:34.630Z,101891.69
2022-10-17T09:36:05.775Z,101898.22
2022-10-17T09:38:41.766Z,101890.81
2022-10-17T09:41:42.849Z,101895.75
2022-10-17T09:44:22.509Z,101897.19
2022-10-17T09:46:48.964Z,101903.03
2022-10-17T09:49:20.989Z,101917.34
2022-10-17T09:51:48.204Z,101926.13
2022-10-17T09:54:22.628Z,101931.97
2022-10-17T09:57:04.614Z,101942.50
2022-10-17T09:59:42.179Z,101945.59
2022-10-17T10:02:23.119Z,101932.09
2022-10-17T10:05:09.551Z,101931.81
2022-10-17T10:07:38.548Z,101934.34
2022-10-17T10:10:08.492Z,101948.97
2022-10-17T10:12:38.038Z,101957.00
2022-10-17T10:15:31.336Z,101980.19
2022-10-17T10:17:57.934Z,101956.31
2022-10-17T10:20:34.673Z,101973.00
2022-10-17T10:23:18.410Z,101973.34
2022-10-17T10:25:58.954Z,101977.31
2022-10-17T10:28:31.450Z,101977.19
2022-10-17T10:31:01.105Z,101987.16
2022-10-17T10:33:29.912Z,102001.97
2022-10-17T10:36:02.032Z,102000.31
2022-10-17T10:38:29.204Z,101996.41
2022-10-17T10:40:58.275Z,102008.09
2022-10-17T10:43:38.107Z,102008.59
2022-10-17T10:46:15.668Z,102004.66
2022-10-17T10:48:51.040Z,102005.84
2022-10-17T10:51:20.821Z,102015.66
2022-10-17T10:53:51.813Z,101999.84
2022-10-17T10:56:26.288Z,102005.66
2022-10-17T10:59:08.387Z,102007.72
2022-10-17T11:02:12.900Z,102004.09
2022-10-17T11:04:47.825Z,101995.63
2022-10-17T11:07:29.854Z,101997.97
2022-10-17T11:10:14.446Z,102015.75
2022-10-17T11:12:52.798Z,102020.34
2022-10-17T11:15:40.941Z,102023.84
2022-10-17T11:18:17.001Z,102027.03
2022-10-17T11:21:04.743Z,102029.06
2022-10-17T11:23:43.650Z,102045.44
2022-10-17T11:26:31.717Z,102048.28
2022-10-17T11:29:00.466Z,102066.28
2022-10-17T11:31:38.752Z,102055.66
2022-10-17T11:34:25.682Z,102074.59
2022-10-17T11:36:56.775Z,102064.69
2022-10-17T11:39:30.720Z,102067.66
2022-10-17T11:42:07.323Z,102052.22
2022-10-17T11:44:37.840Z,102064.94
2022-10-17T11:47:04.553Z,102069.97
2022-10-17T11:49:38.217Z,102061.53
2022-10-17T11:52:56.038Z,102054.41
2022-10-17T11:55:24.057Z,102061.47
2022-10-17T11:57:53.018Z,102062.06
2022-10-17T12:00:35.779Z,102059.09
2022-10-17T12:03:13.848Z,102062.06
2022-10-17T12:06:20.259Z,102058.19
2022-10-17T12:09:02.152Z,102073.84
2022-10-17T12:11:57.563Z,102071.56
2022-10-17T12:14:46.710Z,102069.75
2022-10-17T12:17:36.866Z,102078.66
2022-10-17T12:20:23.520Z,102080.94
2022-10-17T12:23:09.332Z,102076.00
2022-10-17T12:25:42.632Z,102075.63
2022-10-17T12:28:14.161Z,102081.50
2022-10-17T12:31:03.644Z,102081.81
2022-10-17T12:33:34.479Z,102084.44
2022-10-17T12:36:22.187Z,102089.69
2022-10-17T12:38:50.653Z,102096.03
2022-10-17T12:41:17.784Z,102106.09
2022-10-17T12:43:54.410Z,102099.59
2022-10-17T12:46:45.129Z,102105.09
2022-10-17T12:49:46.506Z,102119.06
2022-10-17T12:52:22.262Z,102120.53
2022-10-17T12:55:07.141Z,102120.41
2022-10-17T12:57:51.664Z,102125.03
2022-10-17T13:00:20.245Z,102125.03
2022-10-17T13:02:47.692Z,102130.19
2022-10-17T13:05:18.028Z,102129.84
2022-10-17T13:07:45.286Z,102117.53
2022-10-17T13:13:15.882Z,102119.16
2022-10-17T13:15:47.118Z,102134.31
2022-10-17T13:18:26.142Z,102136.31
2022-10-17T13:21:03.297Z,102126.84
2022-10-17T13:23:35.797Z,102128.66
2022-10-17T13:26:06.249Z,102123.94
2022-10-17T13:28:35.920Z,102121.84
2022-10-17T13:31:06.101Z,102125.00
2022-10-17T13:33:37.852Z,102135.16
2022-10-17T13:36:07.629Z,102128.13
2022-10-17T13:38:36.760Z,102136.97
2022-10-17T13:41:34.187Z,102133.16
2022-10-17T13:43:58.675Z,102127.97
2022-10-17T13:46:39.234Z,102127.28
2022-10-17T13:52:19.421Z,102131.44
2022-10-17T13:54:48.433Z,102139.06
2022-10-17T13:57:17.921Z,102125.81
2022-10-17T13:59:47.768Z,102131.38
2022-10-17T14:02:17.714Z,102131.88
2022-10-17T14:05:15.211Z,102140.94
2022-10-17T14:08:10.064Z,102149.25
2022-10-17T14:10:37.595Z,102172.84
2022-10-17T14:13:08.275Z,102160.16
2022-10-17T14:15:36.673Z,102172.19
2022-10-17T14:18:07.973Z,102168.69
2022-10-17T14:23:37.628Z,102176.13
2022-10-17T14:26:25.290Z,102175.34
2022-10-17T14:29:07.890Z,102180.50
2022-10-17T14:31:35.977Z,102168.22
2022-10-17T14:34:04.464Z,102170.00
2022-10-17T14:36:34.529Z,102171.91
2022-10-17T14:39:01.867Z,102183.50
2022-10-17T14:41:48.073Z,102182.00
2022-10-17T14:44:35.574Z,102186.25
2022-10-17T14:47:30.370Z,102190.16
2022-10-17T14:49:52.573Z,102181.06
2022-10-17T14:52:19.201Z,102183.25
2022-10-17T14:54:49.477Z,102185.88
2022-10-17T14:57:27.609Z,102188.16
2022-10-17T14:59:57.823Z,102205.06
2022-10-17T15:02:25.609Z,102191.94
2022-10-17T15:04:52.779Z,102202.00
2022-10-17T15:07:21.030Z,102214.84
2022-10-17T15:09:49.311Z,102214.91
2022-10-17T15:12:18.751Z,102217.78
2022-10-17T15:14:47.327Z,102216.06
2022-10-17T15:17:32.064Z,102229.72
2022-10-17T15:19:59.055Z,102231.59
2022-10-17T15:22:25.574Z,102239.09
2022-10-17T15:24:52.270Z,102234.31
2022-10-17T15:27:20.200Z,102243.66
2022-10-17T15:29:47.238Z,102241.53
2022-10-17T15:32:14.130Z,102248.75
2022-10-17T15:34:41.317Z,102240.69
2022-10-17T15:37:19.297Z,102252.53
2022-10-17T15:39:53.073Z,102252.75
2022-10-17T15:42:21.378Z,102255.56
2022-10-17T15:44:49.977Z,102256.94
2022-10-17T15:47:30.978Z,102252.28
2022-10-17T15:49:57.805Z,102250.91
2022-10-17T15:52:24.668Z,102254.41
2022-10-17T15:54:51.414Z,102257.50
2022-10-17T15:57:20.639Z,102262.16
2022-10-17T15:59:48.127Z,102264.25
2022-10-17T16:02:15.653Z,102266.84
2022-10-17T16:04:42.522Z,102267.41
2022-10-17T16:07:09.205Z,102270.50
2022-10-17T16:09:37.436Z,102274.47
2022-10-17T16:12:12.321Z,102284.25
2022-10-17T16:14:38.973Z,102280.66
2022-10-17T16:17:05.608Z,102278.31
2022-10-17T16:19:32.116Z,102275.56
2022-10-17T16:22:04.287Z,102291.22
2022-10-17T16:24:31.259Z,102297.56
2022-10-17T16:26:57.777Z,102300.66
2022-10-17T16:29:24.257Z,102305.13
2022-10-17T16:31:50.819Z,102309.59
2022-10-17T16:34:17.330Z,102315.47
2022-10-17T16:36:43.986Z,102316.00
2022-10-17T16:39:11.104Z,102318.03
2022-10-17T16:41:38.903Z,102319.63
2022-10-17T16:44:07.669Z,102330.06
2022-10-17T16:46:36.802Z,102323.38
2022-10-17T16:49:04.700Z,102332.84
2022-10-17T16:51:33.637Z,102326.13
2022-10-17T16:54:00.367Z,102330.28
2022-10-17T16:56:32.586Z,102333.69
2022-10-17T16:59:00.221Z,102336.13
2022-10-17T17:01:26.799Z,102339.22
2022-10-17T17:03:53.547Z,102346.59
2022-10-17T17:06:24.329Z,102353.66
2022-10-17T17:08:51.187Z,102352.97
2022-10-17T17:11:19.639Z,102355.53
2022-10-17T17:13:46.707Z,102354.84
2022-10-17T17:16:16.201Z,102356.38
2022-10-17T17:18:43.503Z,102353.97
2022-10-17T17:21:10.868Z,102357.78
2022-10-17T17:23:39.448Z,102369.97
2022-10-17T17:26:18.387Z,102366.03
2022-10-17T17:28:45.516Z,102369.28
2022-10-17T17:31:16.306Z,102371.84
2022-10-17T17:33:43.293Z,102371.84
2022-10-17T17:36:13.874Z,102371.31
2022-10-17T17:38:41.480Z,102375.97
2022-10-17T17:41:08.210Z,102374.59
2022-10-17T17:43:35.691Z,102382.66
2022-10-17T17:46:02.703Z,102379.56
2022-10-17T17:48:29.437Z,102388.81
2022-10-17T17:50:56.109Z,102389.69
2022-10-17T17:53:23.096Z,102390.38
2022-10-17T17:56:01.259Z,102387.97
2022-10-17T17:58:27.857Z,102389.88
2022-10-17T18:00:54.429Z,102391.22
2022-10-17T18:03:20.980Z,102400.16
2022-10-17T18:05:47.502Z,102403.06
2022-10-17T18:08:13.976Z,102404.09
2022-10-17T18:10:40.475Z,102403.06
2022-10-17T18:13:07.210Z,102405.66
2022-10-17T18:15:33.738Z,102409.25
2022-10-17T18:18:00.401Z,102406.50
2022-10-17T18:20:27.802Z,102412.19
2022-10-17T18:22:54.309Z,102414.56
2022-10-17T18:25:20.832Z,102416.28
2022-10-17T18:27:47.997Z,102413.19
2022-10-17T18:30:14.809Z,102421.06
2022-10-17T18:32:41.274Z,102420.75
2022-10-17T18:35:08.025Z,102427.94
2022-10-17T18:37:34.619Z,102427.06
2022-10-17T18:40:03.089Z,102423.50
2022-10-17T18:42:30.082Z,102423.31
2022-10-17T18:44:56.819Z,102427.06
2022-10-17T18:47:23.307Z,102436.34
2022-10-17T18:49:49.999Z,102444.44
2022-10-17T18:52:16.495Z,102450.25
2022-10-17T18:54:43.064Z,102438.06
2022-10-17T18:57:09.613Z,102427.41
2022-10-17T18:59:37.011Z,102430.16
2022-10-17T19:02:03.548Z,102424.84
2022-10-17T19:04:30.151Z,102440.63
2022-10-17T19:06:56.609Z,102450.25
2022-10-17T19:09:23.098Z,102443.72
2022-10-17T19:11:49.743Z,102457.28
2022-10-17T19:14:16.317Z,102455.94
2022-10-17T19:16:45.791Z,102449.41
2022-10-17T19:19:15.444Z,102455.75
2022-10-17T19:21:42.309Z,102457.47
2022-10-17T19:24:13.368Z,102458.31
2022-10-17T19:26:41.088Z,102465.19
2022-10-17T19:29:07.796Z,102464.09
2022-10-17T19:31:35.424Z,102462.03
2022-10-17T19:34:01.982Z,102458.94
2022-10-17T19:36:33.181Z,102460.81
2022-10-17T19:39:05.615Z,102457.91
2022-10-17T19:41:32.408Z,102466.97
2022-10-17T19:44:00.658Z,102464.06
2022-10-17T19:46:28.668Z,102471.09
2022-10-17T19:48:55.534Z,102467.66
2022-10-17T19:51:26.429Z,102473.47
2022-10-17T19:53:55.011Z,102484.63
2022-10-17T19:56:22.601Z,102481.34
2022-10-17T19:58:49.993Z,102486.47
2022-10-17T20:01:22.784Z,102480.03
2022-10-17T20:03:49.525Z,102483.81
2022-10-17T20:06:17.104Z,102490.81
2022-10-17T20:08:44.131Z,102488.94
2022-10-17T20:11:29.328Z,102490.66
2022-10-17T20:13:56.390Z,102500.25
2022-10-17T20:16:25.396Z,102504.63
2022-10-17T20:18:54.764Z,102503.19
2022-10-17T20:21:24.867Z,102512.94
2022-10-17T20:23:51.571Z,102515.28
2022-10-17T20:26:36.950Z,102522.44
2022-10-17T20:29:12.564Z,102523.09
2022-10-17T20:31:40.220Z,102530.25
2022-10-17T20:34:06.990Z,102526.97
2022-10-17T20:36:37.024Z,102521.25
2022-10-17T20:39:04.922Z,102526.22
2022-10-17T20:41:31.402Z,102523.28
2022-10-17T20:43:57.910Z,102526.22
2022-10-17T20:46:36.422Z,102523.59
2022-10-17T20:49:05.843Z,102533.91
2022-10-17T20:51:32.607Z,102527.00
2022-10-17T20:53:59.115Z,102532.47
2022-10-17T20:56:28.108Z,102538.09
2022-10-17T20:58:58.454Z,102544.47
2022-10-17T21:01:26.020Z,102543.44
2022-10-17T21:03:52.835Z,102546.31
2022-10-17T21:06:19.978Z,102547.38
2022-10-17T21:08:47.339Z,102554.00
2022-10-17T21:11:17.512Z,102557.53
2022-10-17T21:13:44.739Z,102572.91
2022-10-17T21:16:17.371Z,102579.03
2022-10-17T21:18:44.406Z,102586.28
2022-10-17T21:21:14.361Z,102579.38
2022-10-17T21:23:42.562Z,102584.44
2022-10-17T21:26:10.292Z,102585.78
2022-10-17T21:28:37.860Z,102585.09
2022-10-17T21:31:11.593Z,102594.47
2022-10-17T21:33:38.760Z,102600.25
2022-10-17T21:36:06.141Z,102601.44
2022-10-17T21:38:35.847Z,102598.81
2022-10-17T21:41:02.407Z,102605.31
2022-10-17T21:43:28.942Z,102606.31
2022-10-17T21:45:55.444Z,102602.91
2022-10-17T21:48:21.981Z,102606.50
2022-10-17T21:50:48.479Z,102604.75
2022-10-17T21:53:14.996Z,102608.50
2022-10-17T21:55:41.528Z,102599.59
2022-10-17T21:58:08.015Z,102598.91
2022-10-17T22:00:34.572Z,102597.28
2022-10-17T22:03:01.101Z,102594.53
2022-10-17T22:05:27.648Z,102596.28
2022-10-17T22:07:54.291Z,102616.00
2022-10-17T22:10:20.751Z,102614.72
2022-10-17T22:12:47.275Z,102609.22
2022-10-17T22:17:41.218Z,102622.91
2022-10-17T22:20:08.130Z,102622.91
2022-10-17T22:22:34.633Z,102620.47
2022-10-17T22:25:01.102Z,102623.22
2022-10-17T22:27:27.716Z,102620.47
2022-10-17T22:29:54.229Z,102612.44
2022-10-17T22:32:22.524Z,102611.41
2022-10-17T22:34:49.295Z,102614.00
2022-10-17T22:37:15.897Z,102603.91
2022-10-17T22:39:42.419Z,102609.41
2022-10-17T22:42:08.978Z,102619.63
2022-10-17T22:44:35.696Z,102614.97
2022-10-17T22:47:02.613Z,102620.38
2022-10-17T22:49:29.094Z,102625.53
2022-10-17T22:51:55.552Z,102626.97
2022-10-17T22:54:22.023Z,102615.88
2022-10-17T22:56:48.495Z,102618.44
2022-10-17T22:59:15.360Z,102618.16
2022-10-17T23:01:41.905Z,102621.13
2022-10-17T23:04:08.502Z,102616.78
2022-10-17T23:06:35.132Z,102631.38
2022-10-17T23:09:01.812Z,102634.41
2022-10-17T23:11:28.302Z,102629.78
2022-10-17T23:13:54.796Z,102635.44
2022-10-17T23:16:21.323Z,102628.53
2022-10-17T23:18:48.197Z,102624.94
2022-10-17T23:21:14.832Z,102625.53
2022-10-17T23:23:41.334Z,102626.88
2022-10-17T23:26:12.897Z,102627.72
2022-10-17T23:28:40.275Z,102631.94
2022-10-17T23:31:18.473Z,102628.09
2022-10-17T23:33:46.232Z,102625.09
2022-10-17T23:36:14.697Z,102639.34
2022-10-17T23:38:42.728Z,102623.56
2022-10-17T23:41:09.756Z,102626.75
2022-10-17T23:43:36.508Z,102621.16
2022-10-17T23:46:04.372Z,102619.88
2022-10-17T23:48:30.932Z,102623.22
2022-10-17T23:50:57.421Z,102620.78
2022-10-17T23:53:24.344Z,102630.16
2022-10-17T23:55:51.104Z,102625.25
2022-10-17T23:58:18.024Z,102627.31
